sensor_id;sensor_type;location;lat;lon;timestamp;temperature;humidity
34279;DHT22;20538;51.528;9.942;2023-04-19T00:00:52;10.00;99.90
34279;DHT22;20538;51.528;9.942;2023-04-19T00:03:18;9.90;99.90
34279;DHT22;20538;51.528;9.942;2023-04-19T00:05:44;9.90;99.90
34279;DHT22;20538;51.528;9.942;2023-04-19T00:08:10;9.90;99.90
34279;DHT22;20538;51.528;9.942;2023-04-19T00:10:36;9.90;99.90
34279;DHT22;20538;51.528;9.942;2023-04-19T00:13:03;9.90;99.90
34279;DHT22;20538;51.528;9.942;2023-04-19T00:15:29;9.90;99.90
34279;DHT22;20538;51.528;9.942;2023-04-19T00:17:54;9.90;99.90
34279;DHT22;20538;51.528;9.942;2023-04-19T00:20:21;9.80;99.90
34279;DHT22;20538;51.528;9.942;2023-04-19T00:22:46;9.80;99.90
34279;DHT22;20538;51.528;9.942;2023-04-19T00:25:12;9.80;99.90
34279;DHT22;20538;51.528;9.942;2023-04-19T00:27:38;9.70;99.90
34279;DHT22;20538;51.528;9.942;2023-04-19T00:30:04;9.70;99.90
34279;DHT22;20538;51.528;9.942;2023-04-19T00:32:30;9.70;99.90
34279;DHT22;20538;51.528;9.942;2023-04-19T00:34:55;9.70;99.90
34279;DHT22;20538;51.528;9.942;2023-04-19T00:37:21;9.70;99.90
34279;DHT22;20538;51.528;9.942;2023-04-19T00:39:47;9.60;99.90
34279;DHT22;20538;51.528;9.942;2023-04-19T00:42:12;9.60;99.90
34279;DHT22;20538;51.528;9.942;2023-04-19T00:44:38;9.60;99.90
34279;DHT22;20538;51.528;9.942;2023-04-19T00:47:04;9.60;99.90
34279;DHT22;20538;51.528;9.942;2023-04-19T00:49:30;9.50;99.90
34279;DHT22;20538;51.528;9.942;2023-04-19T00:51:56;9.60;99.90
34279;DHT22;20538;51.528;9.942;2023-04-19T00:54:22;9.50;99.90
34279;DHT22;20538;51.528;9.942;2023-04-19T00:56:48;9.50;99.90
34279;DHT22;20538;51.528;9.942;2023-04-19T00:59:14;9.50;99.90
34279;DHT22;20538;51.528;9.942;2023-04-19T01:01:40;9.50;99.90
34279;DHT22;20538;51.528;9.942;2023-04-19T01:04:07;9.50;99.90
34279;DHT22;20538;51.528;9.942;2023-04-19T01:06:34;9.40;99.90
34279;DHT22;20538;51.528;9.942;2023-04-19T01:09:00;9.40;99.90
34279;DHT22;20538;51.528;9.942;2023-04-19T01:11:26;9.40;99.90
34279;DHT22;20538;51.528;9.942;2023-04-19T01:13:54;9.40;99.90
34279;DHT22;20538;51.528;9.942;2023-04-19T01:16:20;9.40;99.90
34279;DHT22;20538;51.528;9.942;2023-04-19T01:18:45;9.40;99.90
34279;DHT22;20538;51.528;9.942;2023-04-19T01:21:11;9.40;99.90
34279;DHT22;20538;51.528;9.942;2023-04-19T01:23:37;9.40;99.90
34279;DHT22;20538;51.528;9.942;2023-04-19T01:26:04;9.40;99.90
34279;DHT22;20538;51.528;9.942;2023-04-19T01:28:30;9.40;99.90
34279;DHT22;20538;51.528;9.942;2023-04-19T01:30:56;9.30;99.90
34279;DHT22;20538;51.528;9.942;2023-04-19T01:33:21;9.30;99.90
34279;DHT22;20538;51.528;9.942;2023-04-19T01:35:48;9.30;99.90
34279;DHT22;20538;51.528;9.942;2023-04-19T01:38:14;9.30;99.90
34279;DHT22;20538;51.528;9.942;2023-04-19T01:40:40;9.30;99.90
34279;DHT22;20538;51.528;9.942;2023-04-19T01:43:07;9.30;99.90
34279;DHT22;20538;51.528;9.942;2023-04-19T01:45:33;9.30;99.90
34279;DHT22;20538;51.528;9.942;2023-04-19T01:48:01;9.20;99.90
34279;DHT22;20538;51.528;9.942;2023-04-19T01:50:27;9.20;99.90
34279;DHT22;20538;51.528;9.942;2023-04-19T01:52:53;9.20;99.90
34279;DHT22;20538;51.528;9.942;2023-04-19T01:55:18;9.20;99.90
34279;DHT22;20538;51.528;9.942;2023-04-19T01:57:44;9.20;99.90
34279;DHT22;20538;51.528;9.942;2023-04-19T02:00:10;9.10;99.90
34279;DHT22;20538;51.528;9.942;2023-04-19T02:02:37;9.10;99.90
34279;DHT22;20538;51.528;9.942;2023-04-19T02:05:04;9.00;99.90
34279;DHT22;20538;51.528;9.942;2023-04-19T02:07:30;9.10;99.90
34279;DHT22;20538;51.528;9.942;2023-04-19T02:09:55;9.10;99.90
34279;DHT22;20538;51.528;9.942;2023-04-19T02:12:25;9.00;99.90
34279;DHT22;20538;51.528;9.942;2023-04-19T02:14:53;9.00;99.90
34279;DHT22;20538;51.528;9.942;2023-04-19T02:17:22;9.00;99.90
34279;DHT22;20538;51.528;9.942;2023-04-19T02:19:47;8.90;99.90
34279;DHT22;20538;51.528;9.942;2023-04-19T02:22:13;9.00;99.90
34279;DHT22;20538;51.528;9.942;2023-04-19T02:24:39;8.90;99.90
34279;DHT22;20538;51.528;9.942;2023-04-19T02:27:04;8.90;99.90
34279;DHT22;20538;51.528;9.942;2023-04-19T02:29:31;8.90;99.90
34279;DHT22;20538;51.528;9.942;2023-04-19T02:31:57;8.90;99.90
34279;DHT22;20538;51.528;9.942;2023-04-19T02:34:22;8.80;99.90
34279;DHT22;20538;51.528;9.942;2023-04-19T02:36:48;8.80;99.90
34279;DHT22;20538;51.528;9.942;2023-04-19T02:39:14;8.70;99.90
34279;DHT22;20538;51.528;9.942;2023-04-19T02:41:41;8.70;99.90
34279;DHT22;20538;51.528;9.942;2023-04-19T02:44:06;8.70;99.90
34279;DHT22;20538;51.528;9.942;2023-04-19T02:46:33;8.60;99.90
34279;DHT22;20538;51.528;9.942;2023-04-19T02:49:01;8.60;99.90
34279;DHT22;20538;51.528;9.942;2023-04-19T02:51:27;8.60;99.90
34279;DHT22;20538;51.528;9.942;2023-04-19T02:53:53;8.50;99.90
34279;DHT22;20538;51.528;9.942;2023-04-19T02:56:18;8.50;99.90
34279;DHT22;20538;51.528;9.942;2023-04-19T02:58:44;8.40;99.90
34279;DHT22;20538;51.528;9.942;2023-04-19T03:01:10;8.30;99.90
34279;DHT22;20538;51.528;9.942;2023-04-19T03:03:35;8.30;99.90
34279;DHT22;20538;51.528;9.942;2023-04-19T03:06:01;8.20;99.90
34279;DHT22;20538;51.528;9.942;2023-04-19T03:08:27;8.10;99.90
34279;DHT22;20538;51.528;9.942;2023-04-19T03:10:53;7.90;99.90
34279;DHT22;20538;51.528;9.942;2023-04-19T03:13:19;7.80;99.90
34279;DHT22;20538;51.528;9.942;2023-04-19T03:15:46;7.70;99.90
34279;DHT22;20538;51.528;9.942;2023-04-19T03:18:11;7.60;99.90
34279;DHT22;20538;51.528;9.942;2023-04-19T03:20:37;7.50;99.90
34279;DHT22;20538;51.528;9.942;2023-04-19T03:23:03;7.40;99.90
34279;DHT22;20538;51.528;9.942;2023-04-19T03:25:28;7.40;99.90
34279;DHT22;20538;51.528;9.942;2023-04-19T03:27:55;7.40;99.90
34279;DHT22;20538;51.528;9.942;2023-04-19T03:30:21;7.30;99.90
34279;DHT22;20538;51.528;9.942;2023-04-19T03:32:47;7.30;99.90
34279;DHT22;20538;51.528;9.942;2023-04-19T03:35:12;7.10;99.90
34279;DHT22;20538;51.528;9.942;2023-04-19T03:37:38;7.10;99.90
34279;DHT22;20538;51.528;9.942;2023-04-19T03:40:04;7.10;99.90
34279;DHT22;20538;51.528;9.942;2023-04-19T03:42:30;7.00;99.90
34279;DHT22;20538;51.528;9.942;2023-04-19T03:44:56;7.10;99.90
34279;DHT22;20538;51.528;9.942;2023-04-19T03:47:22;7.00;99.90
34279;DHT22;20538;51.528;9.942;2023-04-19T03:49:47;7.00;99.90
34279;DHT22;20538;51.528;9.942;2023-04-19T03:52:13;6.90;99.90
34279;DHT22;20538;51.528;9.942;2023-04-19T03:54:39;6.90;99.90
34279;DHT22;20538;51.528;9.942;2023-04-19T03:57:04;6.70;99.90
34279;DHT22;20538;51.528;9.942;2023-04-19T03:59:30;6.70;99.90
34279;DHT22;20538;51.528;9.942;2023-04-19T04:01:56;6.70;99.90
34279;DHT22;20538;51.528;9.942;2023-04-19T04:04:21;6.50;99.90
34279;DHT22;20538;51.528;9.942;2023-04-19T04:06:47;6.50;99.90
34279;DHT22;20538;51.528;9.942;2023-04-19T04:09:13;6.40;99.90
34279;DHT22;20538;51.528;9.942;2023-04-19T04:11:38;6.40;99.90
34279;DHT22;20538;51.528;9.942;2023-04-19T04:14:05;6.30;99.90
34279;DHT22;20538;51.528;9.942;2023-04-19T04:16:31;6.30;99.90
34279;DHT22;20538;51.528;9.942;2023-04-19T04:18:56;6.30;99.90
34279;DHT22;20538;51.528;9.942;2023-04-19T04:21:22;6.30;99.90
34279;DHT22;20538;51.528;9.942;2023-04-19T04:23:49;6.30;99.90
34279;DHT22;20538;51.528;9.942;2023-04-19T04:26:14;6.20;99.90
34279;DHT22;20538;51.528;9.942;2023-04-19T04:28:40;6.20;99.90
34279;DHT22;20538;51.528;9.942;2023-04-19T04:31:05;6.20;99.90
34279;DHT22;20538;51.528;9.942;2023-04-19T04:33:31;6.20;99.90
34279;DHT22;20538;51.528;9.942;2023-04-19T04:35:57;6.20;99.90
34279;DHT22;20538;51.528;9.942;2023-04-19T04:38:23;6.10;99.90
34279;DHT22;20538;51.528;9.942;2023-04-19T04:40:53;6.20;99.90
34279;DHT22;20538;51.528;9.942;2023-04-19T04:43:23;6.20;99.90
34279;DHT22;20538;51.528;9.942;2023-04-19T04:45:50;6.10;99.90
34279;DHT22;20538;51.528;9.942;2023-04-19T04:48:16;6.20;99.90
34279;DHT22;20538;51.528;9.942;2023-04-19T04:50:42;6.30;99.90
34279;DHT22;20538;51.528;9.942;2023-04-19T04:53:08;6.30;99.90
34279;DHT22;20538;51.528;9.942;2023-04-19T04:55:34;6.30;99.90
34279;DHT22;20538;51.528;9.942;2023-04-19T04:58:00;6.40;99.90
34279;DHT22;20538;51.528;9.942;2023-04-19T05:00:26;6.30;99.90
34279;DHT22;20538;51.528;9.942;2023-04-19T05:02:52;6.30;99.90
34279;DHT22;20538;51.528;9.942;2023-04-19T05:05:17;6.10;99.90
34279;DHT22;20538;51.528;9.942;2023-04-19T05:07:43;6.00;99.90
34279;DHT22;20538;51.528;9.942;2023-04-19T05:10:09;6.10;99.90
34279;DHT22;20538;51.528;9.942;2023-04-19T05:12:36;6.30;99.90
34279;DHT22;20538;51.528;9.942;2023-04-19T05:15:02;6.20;99.90
34279;DHT22;20538;51.528;9.942;2023-04-19T05:17:27;6.30;99.90
34279;DHT22;20538;51.528;9.942;2023-04-19T05:19:53;6.30;99.90
34279;DHT22;20538;51.528;9.942;2023-04-19T05:22:18;6.00;99.90
34279;DHT22;20538;51.528;9.942;2023-04-19T05:24:44;6.00;99.90
34279;DHT22;20538;51.528;9.942;2023-04-19T05:27:10;6.00;99.90
34279;DHT22;20538;51.528;9.942;2023-04-19T05:29:35;6.10;99.90
34279;DHT22;20538;51.528;9.942;2023-04-19T05:32:01;6.00;99.90
34279;DHT22;20538;51.528;9.942;2023-04-19T05:34:27;6.30;99.90
34279;DHT22;20538;51.528;9.942;2023-04-19T05:36:53;6.30;99.90
34279;DHT22;20538;51.528;9.942;2023-04-19T05:39:18;6.40;99.90
34279;DHT22;20538;51.528;9.942;2023-04-19T05:41:44;6.50;99.90
34279;DHT22;20538;51.528;9.942;2023-04-19T05:44:10;6.60;99.90
34279;DHT22;20538;51.528;9.942;2023-04-19T05:46:36;6.60;99.90
34279;DHT22;20538;51.528;9.942;2023-04-19T05:49:02;6.60;99.90
34279;DHT22;20538;51.528;9.942;2023-04-19T05:51:27;6.60;99.90
34279;DHT22;20538;51.528;9.942;2023-04-19T05:53:53;6.60;99.90
34279;DHT22;20538;51.528;9.942;2023-04-19T05:56:19;6.50;99.90
34279;DHT22;20538;51.528;9.942;2023-04-19T05:58:45;6.60;99.90
34279;DHT22;20538;51.528;9.942;2023-04-19T06:01:10;6.60;99.90
34279;DHT22;20538;51.528;9.942;2023-04-19T06:03:36;6.80;99.90
34279;DHT22;20538;51.528;9.942;2023-04-19T06:06:02;6.80;99.90
34279;DHT22;20538;51.528;9.942;2023-04-19T06:08:27;6.80;99.90
34279;DHT22;20538;51.528;9.942;2023-04-19T06:10:53;7.00;99.90
34279;DHT22;20538;51.528;9.942;2023-04-19T06:13:20;7.10;99.90
34279;DHT22;20538;51.528;9.942;2023-04-19T06:15:47;6.90;99.90
34279;DHT22;20538;51.528;9.942;2023-04-19T06:18:12;7.00;99.90
34279;DHT22;20538;51.528;9.942;2023-04-19T06:20:39;7.20;99.90
34279;DHT22;20538;51.528;9.942;2023-04-19T06:23:07;6.90;99.90
34279;DHT22;20538;51.528;9.942;2023-04-19T06:25:33;6.90;99.90
34279;DHT22;20538;51.528;9.942;2023-04-19T06:28:00;7.10;99.90
34279;DHT22;20538;51.528;9.942;2023-04-19T06:30:26;6.80;99.90
34279;DHT22;20538;51.528;9.942;2023-04-19T06:32:51;7.00;99.90
34279;DHT22;20538;51.528;9.942;2023-04-19T06:35:17;7.00;99.90
34279;DHT22;20538;51.528;9.942;2023-04-19T06:37:43;7.10;99.90
34279;DHT22;20538;51.528;9.942;2023-04-19T06:40:09;7.30;99.90
34279;DHT22;20538;51.528;9.942;2023-04-19T06:42:36;7.00;99.90
34279;DHT22;20538;51.528;9.942;2023-04-19T06:45:02;6.90;99.90
34279;DHT22;20538;51.528;9.942;2023-04-19T06:47:28;6.70;99.90
34279;DHT22;20538;51.528;9.942;2023-04-19T06:49:54;7.00;99.90
34279;DHT22;20538;51.528;9.942;2023-04-19T06:52:20;6.90;99.90
34279;DHT22;20538;51.528;9.942;2023-04-19T06:54:49;7.00;99.90
34279;DHT22;20538;51.528;9.942;2023-04-19T06:57:16;7.40;99.90
34279;DHT22;20538;51.528;9.942;2023-04-19T06:59:42;7.30;99.90
34279;DHT22;20538;51.528;9.942;2023-04-19T07:02:08;7.50;99.90
34279;DHT22;20538;51.528;9.942;2023-04-19T07:04:34;7.50;99.90
34279;DHT22;20538;51.528;9.942;2023-04-19T07:06:59;7.80;99.90
34279;DHT22;20538;51.528;9.942;2023-04-19T07:09:25;7.70;99.90
34279;DHT22;20538;51.528;9.942;2023-04-19T07:11:51;7.60;99.90
34279;DHT22;20538;51.528;9.942;2023-04-19T07:14:17;7.70;99.90
34279;DHT22;20538;51.528;9.942;2023-04-19T07:16:44;7.80;99.90
34279;DHT22;20538;51.528;9.942;2023-04-19T07:19:11;7.90;99.90
34279;DHT22;20538;51.528;9.942;2023-04-19T07:21:37;8.20;99.90
34279;DHT22;20538;51.528;9.942;2023-04-19T07:24:04;8.20;99.90
34279;DHT22;20538;51.528;9.942;2023-04-19T07:26:30;8.00;99.90
34279;DHT22;20538;51.528;9.942;2023-04-19T07:28:56;8.00;99.90
34279;DHT22;20538;51.528;9.942;2023-04-19T07:31:22;8.20;99.90
34279;DHT22;20538;51.528;9.942;2023-04-19T07:33:49;8.30;99.90
34279;DHT22;20538;51.528;9.942;2023-04-19T07:36:15;8.30;99.90
34279;DHT22;20538;51.528;9.942;2023-04-19T07:38:41;8.30;99.90
34279;DHT22;20538;51.528;9.942;2023-04-19T07:41:06;8.10;99.90
34279;DHT22;20538;51.528;9.942;2023-04-19T07:43:32;8.60;99.90
34279;DHT22;20538;51.528;9.942;2023-04-19T07:45:58;8.80;99.90
34279;DHT22;20538;51.528;9.942;2023-04-19T07:48:23;8.40;99.90
34279;DHT22;20538;51.528;9.942;2023-04-19T07:50:49;8.60;99.90
34279;DHT22;20538;51.528;9.942;2023-04-19T07:53:15;8.60;99.90
34279;DHT22;20538;51.528;9.942;2023-04-19T07:55:41;8.60;99.90
34279;DHT22;20538;51.528;9.942;2023-04-19T07:58:06;8.50;99.90
34279;DHT22;20538;51.528;9.942;2023-04-19T08:00:32;8.60;99.90
34279;DHT22;20538;51.528;9.942;2023-04-19T08:03:01;8.60;99.90
34279;DHT22;20538;51.528;9.942;2023-04-19T08:05:27;9.00;99.90
34279;DHT22;20538;51.528;9.942;2023-04-19T08:07:52;9.10;99.90
34279;DHT22;20538;51.528;9.942;2023-04-19T08:10:18;9.10;99.90
34279;DHT22;20538;51.528;9.942;2023-04-19T08:12:44;9.10;99.90
34279;DHT22;20538;51.528;9.942;2023-04-19T08:15:10;9.30;99.90
34279;DHT22;20538;51.528;9.942;2023-04-19T08:17:36;9.40;99.90
34279;DHT22;20538;51.528;9.942;2023-04-19T08:20:02;9.40;99.90
34279;DHT22;20538;51.528;9.942;2023-04-19T08:22:31;9.60;99.90
34279;DHT22;20538;51.528;9.942;2023-04-19T08:24:57;9.70;99.90
34279;DHT22;20538;51.528;9.942;2023-04-19T08:27:23;9.70;99.90
34279;DHT22;20538;51.528;9.942;2023-04-19T08:29:51;9.60;99.90
34279;DHT22;20538;51.528;9.942;2023-04-19T08:32:17;9.80;99.90
34279;DHT22;20538;51.528;9.942;2023-04-19T08:34:43;9.60;99.90
34279;DHT22;20538;51.528;9.942;2023-04-19T08:37:08;9.60;99.90
34279;DHT22;20538;51.528;9.942;2023-04-19T08:39:34;9.60;99.90
34279;DHT22;20538;51.528;9.942;2023-04-19T08:42:09;9.70;99.90
34279;DHT22;20538;51.528;9.942;2023-04-19T08:44:36;9.90;99.90
34279;DHT22;20538;51.528;9.942;2023-04-19T08:47:05;9.90;99.90
34279;DHT22;20538;51.528;9.942;2023-04-19T08:49:34;9.90;99.90
34279;DHT22;20538;51.528;9.942;2023-04-19T08:52:03;10.30;99.90
34279;DHT22;20538;51.528;9.942;2023-04-19T08:54:30;10.00;99.90
34279;DHT22;20538;51.528;9.942;2023-04-19T08:57:00;10.10;99.90
34279;DHT22;20538;51.528;9.942;2023-04-19T08:59:26;10.50;99.90
34279;DHT22;20538;51.528;9.942;2023-04-19T09:01:53;10.50;99.90
34279;DHT22;20538;51.528;9.942;2023-04-19T09:04:20;10.40;99.90
34279;DHT22;20538;51.528;9.942;2023-04-19T09:06:47;10.00;99.90
34279;DHT22;20538;51.528;9.942;2023-04-19T09:09:23;10.10;99.90
34279;DHT22;20538;51.528;9.942;2023-04-19T09:11:49;10.40;99.90
34279;DHT22;20538;51.528;9.942;2023-04-19T09:14:16;10.40;99.90
34279;DHT22;20538;51.528;9.942;2023-04-19T09:16:42;10.40;99.90
34279;DHT22;20538;51.528;9.942;2023-04-19T09:19:08;10.20;99.90
34279;DHT22;20538;51.528;9.942;2023-04-19T09:21:35;10.50;99.90
34279;DHT22;20538;51.528;9.942;2023-04-19T09:24:01;10.50;99.90
34279;DHT22;20538;51.528;9.942;2023-04-19T09:26:27;10.50;99.90
34279;DHT22;20538;51.528;9.942;2023-04-19T09:29:01;10.70;99.90
34279;DHT22;20538;51.528;9.942;2023-04-19T09:31:29;10.60;99.90
34279;DHT22;20538;51.528;9.942;2023-04-19T09:33:55;10.70;99.90
34279;DHT22;20538;51.528;9.942;2023-04-19T09:36:30;10.60;99.90
34279;DHT22;20538;51.528;9.942;2023-04-19T09:38:57;10.60;99.90
34279;DHT22;20538;51.528;9.942;2023-04-19T09:41:23;10.90;99.90
34279;DHT22;20538;51.528;9.942;2023-04-19T09:43:50;10.90;99.90
34279;DHT22;20538;51.528;9.942;2023-04-19T09:49:15;10.70;99.90
34279;DHT22;20538;51.528;9.942;2023-04-19T09:51:52;10.70;99.90
34279;DHT22;20538;51.528;9.942;2023-04-19T09:54:20;10.70;99.90
34279;DHT22;20538;51.528;9.942;2023-04-19T09:56:47;10.50;99.90
34279;DHT22;20538;51.528;9.942;2023-04-19T09:59:14;11.00;99.90
34279;DHT22;20538;51.528;9.942;2023-04-19T10:01:56;10.80;99.90
34279;DHT22;20538;51.528;9.942;2023-04-19T10:04:24;10.80;99.90
34279;DHT22;20538;51.528;9.942;2023-04-19T10:06:53;10.50;99.90
34279;DHT22;20538;51.528;9.942;2023-04-19T10:09:20;10.60;99.90
34279;DHT22;20538;51.528;9.942;2023-04-19T10:11:50;10.50;99.90
34279;DHT22;20538;51.528;9.942;2023-04-19T10:14:21;10.60;99.90
34279;DHT22;20538;51.528;9.942;2023-04-19T10:16:49;10.80;99.90
34279;DHT22;20538;51.528;9.942;2023-04-19T10:19:17;10.60;99.90
34279;DHT22;20538;51.528;9.942;2023-04-19T10:21:44;10.90;99.90
34279;DHT22;20538;51.528;9.942;2023-04-19T10:24:13;10.80;99.90
34279;DHT22;20538;51.528;9.942;2023-04-19T10:29:58;10.60;99.90
34279;DHT22;20538;51.528;9.942;2023-04-19T10:32:28;10.90;99.90
34279;DHT22;20538;51.528;9.942;2023-04-19T10:35:00;10.70;99.90
34279;DHT22;20538;51.528;9.942;2023-04-19T10:37:26;10.80;99.90
34279;DHT22;20538;51.528;9.942;2023-04-19T10:39:51;11.10;99.90
34279;DHT22;20538;51.528;9.942;2023-04-19T10:42:17;10.90;99.90
34279;DHT22;20538;51.528;9.942;2023-04-19T10:45:35;11.30;99.90
34279;DHT22;20538;51.528;9.942;2023-04-19T10:47:54;11.10;99.90
34279;DHT22;20538;51.528;9.942;2023-04-19T10:50:22;11.40;99.90
34279;DHT22;20538;51.528;9.942;2023-04-19T10:52:48;11.30;99.90
34279;DHT22;20538;51.528;9.942;2023-04-19T10:55:20;10.60;99.90
34279;DHT22;20538;51.528;9.942;2023-04-19T11:00:31;11.10;99.90
34279;DHT22;20538;51.528;9.942;2023-04-19T11:06:18;11.30;99.90
34279;DHT22;20538;51.528;9.942;2023-04-19T11:08:45;11.20;99.90
34279;DHT22;20538;51.528;9.942;2023-04-19T11:11:12;10.90;99.90
34279;DHT22;20538;51.528;9.942;2023-04-19T11:13:42;11.00;99.90
34279;DHT22;20538;51.528;9.942;2023-04-19T11:16:08;11.40;99.90
34279;DHT22;20538;51.528;9.942;2023-04-19T11:18:34;11.40;99.90
34279;DHT22;20538;51.528;9.942;2023-04-19T11:20:59;11.40;99.90
34279;DHT22;20538;51.528;9.942;2023-04-19T11:23:25;11.30;99.90
34279;DHT22;20538;51.528;9.942;2023-04-19T11:25:52;11.00;99.90
34279;DHT22;20538;51.528;9.942;2023-04-19T11:28:18;11.40;99.90
34279;DHT22;20538;51.528;9.942;2023-04-19T11:30:46;11.50;99.90
34279;DHT22;20538;51.528;9.942;2023-04-19T11:33:12;11.50;99.90
34279;DHT22;20538;51.528;9.942;2023-04-19T11:35:38;11.70;99.90
34279;DHT22;20538;51.528;9.942;2023-04-19T11:38:06;11.50;99.90
34279;DHT22;20538;51.528;9.942;2023-04-19T11:40:32;11.50;99.90
34279;DHT22;20538;51.528;9.942;2023-04-19T11:43:01;11.80;99.90
34279;DHT22;20538;51.528;9.942;2023-04-19T11:45:28;11.70;99.90
34279;DHT22;20538;51.528;9.942;2023-04-19T11:47:55;11.60;99.90
34279;DHT22;20538;51.528;9.942;2023-04-19T11:55:47;11.80;99.90
34279;DHT22;20538;51.528;9.942;2023-04-19T11:58:48;11.70;99.90
34279;DHT22;20538;51.528;9.942;2023-04-19T12:01:19;11.20;99.90
34279;DHT22;20538;51.528;9.942;2023-04-19T12:03:51;11.10;99.90
34279;DHT22;20538;51.528;9.942;2023-04-19T12:06:21;11.20;99.90
34279;DHT22;20538;51.528;9.942;2023-04-19T12:08:48;11.20;99.90
34279;DHT22;20538;51.528;9.942;2023-04-19T12:11:16;11.40;99.50
34279;DHT22;20538;51.528;9.942;2023-04-19T12:13:43;11.60;97.70
34279;DHT22;20538;51.528;9.942;2023-04-19T12:16:10;11.80;97.80
34279;DHT22;20538;51.528;9.942;2023-04-19T12:18:47;11.90;97.70
34279;DHT22;20538;51.528;9.942;2023-04-19T12:21:25;11.90;97.80
34279;DHT22;20538;51.528;9.942;2023-04-19T12:24:07;12.00;97.70
34279;DHT22;20538;51.528;9.942;2023-04-19T12:26:33;11.80;97.10
34279;DHT22;20538;51.528;9.942;2023-04-19T12:29:00;11.80;97.10
34279;DHT22;20538;51.528;9.942;2023-04-19T12:31:26;11.90;97.40
34279;DHT22;20538;51.528;9.942;2023-04-19T12:33:51;11.70;96.90
34279;DHT22;20538;51.528;9.942;2023-04-19T12:36:18;11.40;96.50
34279;DHT22;20538;51.528;9.942;2023-04-19T12:38:43;11.70;97.20
34279;DHT22;20538;51.528;9.942;2023-04-19T12:41:09;12.10;97.10
34279;DHT22;20538;51.528;9.942;2023-04-19T12:43:36;11.90;97.10
34279;DHT22;20538;51.528;9.942;2023-04-19T12:46:01;12.40;97.20
34279;DHT22;20538;51.528;9.942;2023-04-19T12:48:27;12.10;97.80
34279;DHT22;20538;51.528;9.942;2023-04-19T12:50:54;12.10;97.30
34279;DHT22;20538;51.528;9.942;2023-04-19T12:53:20;12.10;97.20
34279;DHT22;20538;51.528;9.942;2023-04-19T12:55:47;12.30;96.90
34279;DHT22;20538;51.528;9.942;2023-04-19T12:58:17;12.60;97.20
34279;DHT22;20538;51.528;9.942;2023-04-19T13:00:43;12.90;97.10
34279;DHT22;20538;51.528;9.942;2023-04-19T13:03:09;12.60;96.50
34279;DHT22;20538;51.528;9.942;2023-04-19T13:05:37;12.20;96.40
34279;DHT22;20538;51.528;9.942;2023-04-19T13:08:03;12.60;96.90
34279;DHT22;20538;51.528;9.942;2023-04-19T13:10:28;12.30;96.10
34279;DHT22;20538;51.528;9.942;2023-04-19T13:12:54;12.30;96.00
34279;DHT22;20538;51.528;9.942;2023-04-19T13:15:20;12.40;96.00
34279;DHT22;20538;51.528;9.942;2023-04-19T13:17:46;12.90;95.70
34279;DHT22;20538;51.528;9.942;2023-04-19T13:20:12;13.00;95.30
34279;DHT22;20538;51.528;9.942;2023-04-19T13:22:37;12.60;95.70
34279;DHT22;20538;51.528;9.942;2023-04-19T13:25:03;12.80;94.30
34279;DHT22;20538;51.528;9.942;2023-04-19T13:27:29;12.20;94.90
34279;DHT22;20538;51.528;9.942;2023-04-19T13:29:55;12.50;95.00
34279;DHT22;20538;51.528;9.942;2023-04-19T13:32:21;12.40;94.50
34279;DHT22;20538;51.528;9.942;2023-04-19T13:34:46;12.60;95.00
34279;DHT22;20538;51.528;9.942;2023-04-19T13:37:12;13.10;95.00
34279;DHT22;20538;51.528;9.942;2023-04-19T13:39:38;12.40;94.10
34279;DHT22;20538;51.528;9.942;2023-04-19T13:42:04;12.20;94.20
34279;DHT22;20538;51.528;9.942;2023-04-19T13:44:30;12.30;95.00
34279;DHT22;20538;51.528;9.942;2023-04-19T13:46:56;12.10;94.40
34279;DHT22;20538;51.528;9.942;2023-04-19T13:49:22;11.80;94.90
34279;DHT22;20538;51.528;9.942;2023-04-19T13:51:48;11.70;94.60
34279;DHT22;20538;51.528;9.942;2023-04-19T13:54:13;11.80;94.50
34279;DHT22;20538;51.528;9.942;2023-04-19T13:56:42;12.10;94.10
34279;DHT22;20538;51.528;9.942;2023-04-19T13:59:07;12.20;93.70
34279;DHT22;20538;51.528;9.942;2023-04-19T14:01:34;12.70;94.40
34279;DHT22;20538;51.528;9.942;2023-04-19T14:04:00;12.50;93.40
34279;DHT22;20538;51.528;9.942;2023-04-19T14:06:26;12.90;93.60
34279;DHT22;20538;51.528;9.942;2023-04-19T14:08:52;12.30;93.60
34279;DHT22;20538;51.528;9.942;2023-04-19T14:11:18;12.30;93.60
34279;DHT22;20538;51.528;9.942;2023-04-19T14:13:44;12.00;93.70
34279;DHT22;20538;51.528;9.942;2023-04-19T14:16:09;11.90;94.20
34279;DHT22;20538;51.528;9.942;2023-04-19T14:18:35;11.80;94.60
34279;DHT22;20538;51.528;9.942;2023-04-19T14:21:01;12.10;94.30
34279;DHT22;20538;51.528;9.942;2023-04-19T14:23:26;12.40;93.90
34279;DHT22;20538;51.528;9.942;2023-04-19T14:25:52;12.40;94.20
34279;DHT22;20538;51.528;9.942;2023-04-19T14:28:18;12.50;93.80
34279;DHT22;20538;51.528;9.942;2023-04-19T14:30:44;12.70;94.10
34279;DHT22;20538;51.528;9.942;2023-04-19T14:33:10;12.60;93.90
34279;DHT22;20538;51.528;9.942;2023-04-19T14:35:36;12.60;93.80
34279;DHT22;20538;51.528;9.942;2023-04-19T14:38:02;12.40;93.60
34279;DHT22;20538;51.528;9.942;2023-04-19T14:40:28;12.50;94.10
34279;DHT22;20538;51.528;9.942;2023-04-19T14:42:54;12.00;92.70
34279;DHT22;20538;51.528;9.942;2023-04-19T14:45:20;12.60;93.50
34279;DHT22;20538;51.528;9.942;2023-04-19T14:47:45;12.50;93.20
34279;DHT22;20538;51.528;9.942;2023-04-19T14:50:11;12.70;93.20
34279;DHT22;20538;51.528;9.942;2023-04-19T14:52:37;12.60;93.80
34279;DHT22;20538;51.528;9.942;2023-04-19T14:55:02;12.40;94.10
34279;DHT22;20538;51.528;9.942;2023-04-19T14:57:28;12.50;94.60
34279;DHT22;20538;51.528;9.942;2023-04-19T14:59:55;12.30;94.80
34279;DHT22;20538;51.528;9.942;2023-04-19T15:02:25;12.10;94.60
34279;DHT22;20538;51.528;9.942;2023-04-19T15:04:52;12.10;94.40
34279;DHT22;20538;51.528;9.942;2023-04-19T15:07:18;11.90;94.10
34279;DHT22;20538;51.528;9.942;2023-04-19T15:09:43;11.90;94.10
34279;DHT22;20538;51.528;9.942;2023-04-19T15:12:09;11.90;94.00
34279;DHT22;20538;51.528;9.942;2023-04-19T15:14:35;12.00;94.40
34279;DHT22;20538;51.528;9.942;2023-04-19T15:17:01;12.10;94.60
34279;DHT22;20538;51.528;9.942;2023-04-19T15:19:27;11.90;94.50
34279;DHT22;20538;51.528;9.942;2023-04-19T15:21:54;11.80;94.40
34279;DHT22;20538;51.528;9.942;2023-04-19T15:24:19;11.90;94.90
34279;DHT22;20538;51.528;9.942;2023-04-19T15:26:45;11.90;94.90
34279;DHT22;20538;51.528;9.942;2023-04-19T15:29:11;11.90;94.70
34279;DHT22;20538;51.528;9.942;2023-04-19T15:31:37;12.30;95.20
34279;DHT22;20538;51.528;9.942;2023-04-19T15:34:02;12.60;95.20
34279;DHT22;20538;51.528;9.942;2023-04-19T15:36:28;12.20;94.90
34279;DHT22;20538;51.528;9.942;2023-04-19T15:38:54;12.00;94.80
34279;DHT22;20538;51.528;9.942;2023-04-19T15:41:21;12.00;94.80
34279;DHT22;20538;51.528;9.942;2023-04-19T15:43:47;12.10;95.00
34279;DHT22;20538;51.528;9.942;2023-04-19T15:46:13;12.20;94.70
34279;DHT22;20538;51.528;9.942;2023-04-19T15:48:40;12.30;95.10
34279;DHT22;20538;51.528;9.942;2023-04-19T15:51:06;12.70;95.60
34279;DHT22;20538;51.528;9.942;2023-04-19T15:53:33;12.60;95.20